CST,Max TemperatureF,Mean TemperatureF,Min TemperatureF,Max Dew PointF,MeanDew PointF,Min DewpointF,Max Humidity, Mean Humidity, Min Humidity, Max Sea Level PressureIn, Mean Sea Level PressureIn, Min Sea Level PressureIn, Max VisibilityMiles, Mean VisibilityMiles, Min VisibilityMiles, Max Wind SpeedMPH, Mean Wind SpeedMPH, Max Gust SpeedMPH,PrecipitationIn, CloudCover, Events, WindDirDegrees
2013-12-1,49,38,26,30,28,24,91,69,44,30.14,30.04,29.86,10,10,7,8,5,,0.00,0,,66
2013-12-2,62,46,31,35,32,29,92,67,32,29.86,29.63,29.53,10,9,5,13,6,,0.00,1,,195
2013-12-3,48,42,35,39,36,33,100,89,65,29.65,29.56,29.49,10,6,4,13,8,16,0.00,3,,11
2013-12-4,36,26,17,37,22,9,100,90,71,30.06,29.75,29.60,10,7,1,22,14,30,0.00,7,,326
2013-12-5,17,12,8,10,2,-7,76,61,46,30.43,30.27,30.06,10,10,10,21,14,31,0.00,1,,333
2013-12-6,13,8,2,-4,-5,-8,73,57,44,30.67,30.55,30.42,10,10,10,20,11,24,0.00,5,,352
2013-12-7,15,6,-2,1,-4,-8,80,63,45,30.73,30.60,30.38,10,10,10,12,5,,0.00,2,,43
2013-12-8,18,14,8,15,10,1,92,81,53,30.37,30.12,29.99,10,4,0,15,8,18,0.00,7,Snow,105
2013-12-9,13,6,-2,6,-3,-9,90,71,60,30.35,30.24,30.11,10,10,7,22,9,26,0.00,0,,260
2013-12-10,30,22,14,20,13,4,79,68,57,30.27,30.16,30.09,10,10,7,24,14,31,0.01,1,,234
2013-12-11,28,15,2,25,3,-4,88,68,53,30.65,30.52,30.22,10,10,10,22,12,28,0.00,1,,318
2013-12-12,32,19,6,22,13,-1,88,71,61,30.48,30.29,30.09,10,10,10,16,10,,0.00,0,,209
2013-12-13,33,24,16,28,22,15,100,87,77,30.07,29.95,29.85,10,7,3,17,8,23,0.00,3,,83
2013-12-14,25,20,14,22,16,12,90,83,72,30.21,30.15,30.02,10,8,5,20,13,25,0.00,6,,328
2013-12-15,33,24,16,26,21,14,100,86,69,30.16,30.03,29.94,10,8,5,7,2,,0.00,3,,118
2013-12-16,46,30,15,32,25,15,100,84,53,30.16,30.04,29.96,10,8,4,14,4,17,0.00,0,,345
2013-12-17,42,34,25,29,22,14,91,66,32,30.29,30.21,30.13,10,10,10,18,9,23,0.00,0,,275
2013-12-18,59,44,29,29,26,20,70,54,31,30.12,29.84,29.71,10,10,10,22,13,24,0.00,0,,209
2013-12-19,42,33,23,31,28,23,100,81,60,29.83,29.75,29.69,10,9,3,20,9,28,0.00,4,,26
2013-12-20,23,18,14,23,16,13,100,91,83,29.97,29.91,29.82,10,6,3,20,13,26,0.00,8,Snow,338
2013-12-21,25,22,19,23,18,15,100,84,77,29.91,29.81,29.74,10,9,1,20,6,25,0.00,8,Snow,22
2013-12-22,22,15,8,23,12,2,100,81,69,30.37,30.10,29.83,10,8,1,22,12,26,0.00,4,Snow,336
2013-12-23,10,6,1,3,-2,-5,77,67,56,30.60,30.52,30.37,10,10,7,17,9,20,0.00,4,Snow,313
2013-12-24,27,13,0,27,8,-4,100,80,68,30.53,30.30,30.15,10,9,2,23,9,26,0.00,7,,182
2013-12-25,41,29,17,29,23,17,100,80,55,30.32,30.26,30.21,10,9,3,21,10,28,0.00,3,,298
2013-12-26,42,32,22,29,24,18,87,71,53,30.26,30.17,30.12,10,10,10,16,10,20,0.00,0,,234
2013-12-27,51,36,22,31,26,20,89,65,44,30.26,30.19,30.09,10,10,10,17,10,,0.00,0,,229
2013-12-28,50,36,20,32,28,12,76,64,46,30.09,29.94,29.80,10,10,10,34,14,47,0.00,1,,228
2013-12-29,19,12,6,12,-5,-12,73,51,30,30.36,30.28,30.10,10,10,10,31,19,40,0.00,2,,345
2013-12-30,35,20,5,23,6,-7,76,57,42,30.29,30.19,30.08,10,10,10,20,8,28,0.00,5,,198
2013-12-31,49,30,10,27,13,6,85,73,41,30.28,30.14,29.97,10,10,10,23,7,28,0.00,0,,69